createdAt,value
2018-12-04T00:04:27.009Z,24.93
2018-12-04T00:09:15.471Z,21.77
2018-12-04T00:14:05.814Z,22.40
2018-12-04T00:18:55.291Z,28.40
2018-12-04T00:23:42.768Z,22.70
2018-12-04T00:28:32.522Z,28.47
2018-12-04T00:33:17.572Z,23.47
2018-12-04T00:38:05.585Z,22.07
2018-12-04T00:42:53.890Z,25.77
2018-12-04T00:47:42.730Z,21.20
2018-12-04T00:52:26.969Z,21.13
2018-12-04T00:57:12.943Z,20.70
2018-12-04T01:02:04.152Z,24.10
2018-12-04T01:06:53.561Z,20.57
2018-12-04T01:11:43.788Z,20.43
2018-12-04T01:16:28.052Z,24.00
2018-12-04T01:21:18.605Z,23.47
2018-12-04T01:26:02.860Z,23.07
2018-12-04T01:30:51.660Z,18.30
2018-12-04T01:35:41.934Z,24.10
2018-12-04T01:40:29.678Z,25.13
2018-12-04T01:45:16.903Z,23.33
2018-12-04T01:50:07.878Z,26.17
2018-12-04T01:54:52.039Z,26.03
2018-12-04T01:59:42.241Z,22.77
2018-12-04T02:04:32.467Z,23.57
2018-12-04T02:09:22.395Z,28.67
2018-12-04T02:14:10.002Z,23.63
2018-12-04T02:19:00.985Z,20.77
2018-12-04T02:23:46.546Z,23.10
2018-12-04T02:28:41.435Z,26.33
2018-12-04T02:33:26.864Z,27.27
2018-12-04T02:38:14.922Z,28.07
2018-12-04T02:43:06.323Z,21.30
2018-12-04T02:47:51.388Z,21.53
2018-12-04T02:52:40.468Z,21.50
2018-12-04T02:57:30.434Z,24.97
2018-12-04T03:02:18.673Z,20.73
2018-12-04T03:07:08.711Z,23.73
2018-12-04T03:11:58.624Z,20.43
2018-12-04T03:16:48.038Z,25.30
2018-12-04T03:21:38.056Z,24.83
2018-12-04T03:26:27.902Z,26.67
2018-12-04T03:31:17.925Z,22.50
2018-12-04T03:36:07.439Z,24.07
2018-12-04T03:40:58.286Z,21.63
2018-12-04T03:45:42.592Z,23.57
2018-12-04T03:50:32.752Z,22.93
2018-12-04T03:55:19.814Z,23.13
2018-12-04T04:00:10.761Z,24.00
2018-12-04T04:04:55.812Z,27.37
2018-12-04T04:09:45.972Z,32.63
2018-12-04T04:14:35.627Z,31.37
2018-12-04T04:19:25.645Z,30.00
2018-12-04T04:24:13.307Z,20.07
2018-12-04T04:29:04.171Z,20.50
2018-12-04T04:33:53.892Z,23.00
2018-12-04T04:38:40.816Z,22.93
2018-12-04T04:43:31.353Z,148.17
2018-12-04T04:48:15.978Z,215.80
2018-12-04T04:53:00.612Z,60.60
2018-12-04T04:57:51.091Z,23.33
2018-12-04T05:02:35.972Z,21.90
2018-12-04T05:07:25.436Z,16.37
2018-12-04T05:12:13.451Z,16.83
2018-12-04T05:17:03.153Z,19.33
2018-12-04T05:21:51.917Z,27.07
2018-12-04T05:26:40.586Z,21.43
2018-12-04T05:31:28.782Z,23.83
2018-12-04T05:36:18.228Z,46.80
2018-12-04T05:41:08.010Z,46.77
2018-12-04T05:45:57.976Z,40.60
2018-12-04T05:50:45.508Z,20.13
2018-12-04T05:55:36.723Z,22.20
2018-12-04T06:00:21.708Z,49.03
2018-12-04T06:05:13.026Z,26.03
2018-12-04T06:09:57.428Z,27.60
2018-12-04T06:14:46.855Z,25.90
2018-12-04T06:19:31.015Z,28.23
2018-12-04T06:24:21.114Z,29.57
2018-12-04T06:29:08.705Z,31.83
2018-12-04T06:33:54.158Z,29.97
2018-12-04T06:38:46.162Z,29.00
2018-12-04T06:43:35.891Z,26.27
2018-12-04T06:48:26.522Z,30.00
2018-12-04T06:53:16.878Z,43.57
2018-12-04T06:58:06.635Z,37.03
2018-12-04T07:02:50.884Z,44.50
2018-12-04T07:07:41.900Z,45.03
2018-12-04T07:12:32.280Z,41.73
2018-12-04T07:17:22.227Z,59.50
2018-12-04T07:22:12.367Z,73.37
2018-12-04T07:27:02.349Z,83.60
2018-12-04T07:31:50.213Z,86.07
2018-12-04T07:36:35.302Z,83.53
2018-12-04T07:41:23.070Z,72.93
2018-12-04T07:46:13.523Z,71.03
2018-12-04T07:51:09.921Z,57.67
2018-12-04T07:56:00.539Z,57.27
2018-12-04T08:00:51.636Z,61.27
2018-12-04T08:05:41.815Z,110.47
2018-12-04T08:10:31.991Z,70.20
2018-12-04T08:15:21.871Z,79.00
2018-12-04T08:20:12.054Z,98.10
2018-12-04T08:24:59.851Z,76.03
2018-12-04T08:29:50.062Z,85.17
2018-12-04T08:34:41.351Z,82.40
2018-12-04T08:39:32.167Z,106.23
2018-12-04T08:44:22.602Z,161.07
2018-12-04T08:49:13.499Z,122.23
2018-12-04T08:54:02.901Z,96.03
2018-12-04T08:58:52.498Z,94.93
2018-12-04T09:03:37.553Z,77.70
2018-12-04T09:08:25.298Z,73.13
2018-12-04T09:13:15.211Z,83.10
2018-12-04T09:18:05.364Z,76.43
2018-12-04T09:22:55.251Z,62.07
2018-12-04T09:27:46.542Z,66.17
2018-12-04T09:32:36.204Z,70.57
2018-12-04T09:37:26.588Z,75.87
2018-12-04T09:47:01.104Z,101.87
2018-12-04T09:51:48.977Z,98.70
2018-12-04T09:56:38.567Z,157.47
2018-12-04T10:01:28.625Z,175.57
2018-12-04T10:06:17.936Z,155.03
2018-12-04T10:11:08.677Z,139.53
2018-12-04T10:15:58.267Z,171.20
2018-12-04T10:20:45.505Z,224.67
2018-12-04T10:25:37.221Z,180.03
2018-12-04T10:30:24.612Z,201.80
2018-12-04T10:35:14.390Z,196.30
2018-12-04T10:40:04.764Z,212.23
2018-12-04T10:49:40.345Z,143.93
2018-12-04T10:54:30.299Z,106.60
2018-12-04T10:59:20.792Z,94.73
2018-12-04T11:04:10.447Z,100.00
2018-12-04T11:09:00.640Z,87.97
2018-12-04T11:13:45.754Z,89.03
2018-12-04T11:18:37.227Z,98.27
2018-12-04T11:23:22.386Z,101.73
2018-12-04T11:28:12.215Z,99.87
2018-12-04T11:33:02.710Z,100.07
2018-12-04T11:37:53.646Z,116.90
2018-12-04T11:42:43.543Z,144.20
2018-12-04T11:57:03.701Z,168.10
2018-12-04T12:01:53.356Z,125.63
2018-12-04T12:06:38.084Z,103.37
2018-12-04T12:11:28.241Z,105.33
2018-12-04T12:16:17.757Z,98.50
2018-12-04T12:21:07.532Z,118.03
2018-12-04T12:25:57.053Z,177.97
2018-12-04T12:30:47.987Z,122.07
2018-12-04T12:35:38.493Z,107.53
2018-12-04T12:40:28.865Z,102.90
2018-12-04T12:45:13.107Z,104.40
2018-12-04T12:50:04.893Z,120.77
2018-12-04T12:54:54.509Z,128.43
2018-12-04T12:59:44.572Z,115.70
2018-12-04T13:04:34.238Z,111.07
2018-12-04T13:09:24.298Z,103.80
2018-12-04T13:14:11.893Z,73.90
2018-12-04T13:19:00.345Z,78.30
2018-12-04T13:23:49.958Z,65.60
2018-12-04T13:28:40.394Z,71.10
2018-12-04T13:33:30.518Z,125.30
2018-12-04T13:38:20.189Z,131.90
2018-12-04T13:43:10.655Z,153.77
2018-12-04T13:48:00.927Z,85.33
2018-12-04T13:52:50.623Z,140.67
2018-12-04T13:57:41.437Z,121.97
2018-12-04T14:02:31.603Z,98.17
2018-12-04T14:07:22.097Z,136.90
2018-12-04T14:12:11.565Z,149.27
2018-12-04T14:17:01.604Z,124.90
2018-12-04T14:21:46.420Z,104.70
2018-12-04T14:26:37.680Z,86.27
2018-12-04T14:31:28.492Z,61.17
2018-12-04T14:36:16.125Z,60.33
2018-12-04T14:41:06.183Z,40.23
2018-12-04T14:45:56.041Z,40.47
2018-12-04T14:50:46.104Z,84.63
2018-12-04T14:55:33.687Z,52.97
2018-12-04T15:00:26.245Z,62.17
2018-12-04T15:05:18.878Z,33.90
2018-12-04T15:10:09.429Z,30.03
2018-12-04T15:14:59.355Z,79.07
2018-12-04T15:19:49.266Z,93.87
2018-12-04T15:24:37.162Z,110.37
2018-12-04T15:29:27.576Z,140.47
2018-12-04T15:34:17.564Z,67.90
2018-12-04T15:39:07.939Z,39.03
2018-12-04T15:43:57.446Z,27.87
2018-12-04T15:48:47.821Z,24.27
2018-12-04T15:53:38.407Z,19.73
2018-12-04T15:58:26.441Z,78.03
2018-12-04T16:03:17.410Z,118.33
2018-12-04T16:08:19.064Z,119.13
2018-12-04T16:13:14.933Z,137.43
2018-12-04T16:18:06.506Z,176.50
2018-12-04T16:22:56.007Z,61.90
2018-12-04T16:27:46.410Z,25.17
2018-12-04T16:32:36.343Z,18.53
2018-12-04T16:37:26.164Z,18.60
2018-12-04T16:42:10.515Z,183.67
2018-12-04T16:47:00.410Z,179.10
2018-12-04T16:51:50.284Z,243.00
2018-12-04T16:56:40.470Z,262.93
2018-12-04T17:01:30.337Z,104.73
2018-12-04T17:06:20.691Z,24.40
2018-12-04T17:11:11.133Z,21.00
2018-12-04T17:15:59.896Z,21.40
2018-12-04T17:20:49.537Z,162.77
2018-12-04T17:25:39.535Z,244.83
2018-12-04T17:30:34.159Z,226.67
2018-12-04T17:35:25.111Z,40.77
2018-12-04T17:40:13.580Z,36.40
2018-12-04T17:45:04.955Z,28.80
2018-12-04T17:49:54.886Z,40.60
2018-12-04T17:54:44.853Z,47.50
2018-12-04T17:59:38.429Z,53.33
2018-12-04T18:04:29.410Z,61.10
2018-12-04T18:09:14.670Z,62.77
2018-12-04T18:14:05.508Z,40.10
2018-12-04T18:18:57.035Z,119.17
2018-12-04T18:23:48.207Z,117.57
2018-12-04T18:28:40.937Z,113.83
2018-12-04T18:33:30.704Z,145.10
2018-12-04T18:38:18.511Z,93.17
2018-12-04T18:43:08.751Z,120.90
2018-12-04T18:47:54.048Z,113.93
2018-12-04T18:52:45.364Z,63.67
2018-12-04T18:57:36.152Z,25.40
2018-12-04T19:02:27.480Z,23.37
2018-12-04T19:07:17.793Z,16.83
2018-12-04T19:12:10.265Z,19.37
2018-12-04T19:16:55.638Z,29.60
2018-12-04T19:21:45.973Z,35.13
2018-12-04T19:26:36.121Z,46.80
2018-12-04T19:31:25.854Z,95.23
2018-12-04T19:36:15.402Z,74.60
2018-12-04T19:41:03.094Z,88.73
2018-12-04T19:45:53.079Z,85.50
2018-12-04T19:50:43.142Z,87.47
2018-12-04T19:55:32.844Z,80.60
2018-12-04T20:00:24.118Z,96.97
2018-12-04T20:05:26.230Z,93.83
2018-12-04T20:10:16.228Z,111.03
2018-12-04T20:15:05.964Z,138.47
2018-12-04T20:19:55.968Z,128.20
2018-12-04T20:24:46.190Z,107.97
2018-12-04T20:29:37.092Z,31.83
2018-12-04T20:34:26.822Z,15.30
2018-12-04T20:39:16.442Z,14.17
2018-12-04T20:44:05.855Z,18.87
2018-12-04T20:48:55.938Z,20.20
2018-12-04T20:53:43.526Z,20.43
2018-12-04T20:58:33.237Z,22.80
2018-12-04T21:03:20.664Z,26.77
2018-12-04T21:08:11.838Z,23.23
2018-12-04T21:12:56.186Z,64.67
2018-12-04T21:22:31.285Z,78.70
2018-12-04T21:27:26.890Z,69.60
2018-12-04T21:32:22.893Z,72.73
2018-12-04T21:37:18.383Z,76.93
2018-12-04T21:42:13.922Z,76.63
2018-12-04T21:47:11.551Z,35.80
2018-12-04T21:52:02.564Z,34.03
2018-12-04T21:56:53.185Z,39.40
2018-12-04T22:01:37.893Z,39.93
2018-12-04T22:06:24.318Z,37.40
2018-12-04T22:11:13.909Z,39.10
2018-12-04T22:16:03.574Z,40.00
2018-12-04T22:20:48.844Z,36.80
2018-12-04T22:25:34.053Z,35.90
2018-12-04T22:30:25.098Z,33.83
2018-12-04T22:35:16.284Z,34.40
2018-12-04T22:40:05.097Z,37.90
2018-12-04T22:45:01.522Z,28.20
2018-12-04T22:49:52.491Z,33.13
2018-12-04T22:54:42.525Z,30.87
2018-12-04T22:59:32.484Z,28.03
2018-12-04T23:04:22.219Z,31.03
2018-12-04T23:09:12.105Z,29.20
2018-12-04T23:14:01.781Z,30.80
2018-12-04T23:18:51.919Z,24.90
2018-12-04T23:23:41.494Z,31.00
2018-12-04T23:28:31.219Z,23.33
2018-12-04T23:33:21.221Z,28.80
2018-12-04T23:38:11.640Z,27.07
2018-12-04T23:43:01.516Z,26.73
2018-12-04T23:47:51.467Z,26.20
2018-12-04T23:52:36.232Z,27.40
2018-12-04T23:57:25.943Z,30.77
